sensor_id;sensor_type;location;lat;lon;timestamp;P1;durP1;ratioP1;P2;durP2;ratioP2
7173;SDS011;3628;48.654;8.932;2022-09-09T00:04:08;3.63;;;1.00;;
7173;SDS011;3628;48.654;8.932;2022-09-09T00:09:46;3.67;;;1.00;;
7173;SDS011;3628;48.654;8.932;2022-09-09T00:23:12;2.63;;;0.70;;
7173;SDS011;3628;48.654;8.932;2022-09-09T00:28:19;2.73;;;0.87;;
7173;SDS011;3628;48.654;8.932;2022-09-09T00:30:47;3.20;;;0.80;;
7173;SDS011;3628;48.654;8.932;2022-09-09T00:33:13;2.10;;;0.70;;
7173;SDS011;3628;48.654;8.932;2022-09-09T00:35:53;1.97;;;0.80;;
7173;SDS011;3628;48.654;8.932;2022-09-09T00:38:33;2.47;;;0.80;;
7173;SDS011;3628;48.654;8.932;2022-09-09T00:41:11;2.10;;;0.60;;
7173;SDS011;3628;48.654;8.932;2022-09-09T00:43:46;2.43;;;0.77;;
7173;SDS011;3628;48.654;8.932;2022-09-09T00:52:21;2.03;;;0.70;;
7173;SDS011;3628;48.654;8.932;2022-09-09T00:55:05;3.50;;;0.93;;
7173;SDS011;3628;48.654;8.932;2022-09-09T00:57:35;2.73;;;0.70;;
7173;SDS011;3628;48.654;8.932;2022-09-09T01:05:21;1.67;;;0.70;;
7173;SDS011;3628;48.654;8.932;2022-09-09T01:07:51;1.97;;;0.77;;
7173;SDS011;3628;48.654;8.932;2022-09-09T01:10:26;2.63;;;0.87;;
7173;SDS011;3628;48.654;8.932;2022-09-09T01:13:01;2.93;;;0.70;;
7173;SDS011;3628;48.654;8.932;2022-09-09T01:15:33;1.77;;;0.80;;
7173;SDS011;3628;48.654;8.932;2022-09-09T01:18:04;2.33;;;0.73;;
7173;SDS011;3628;48.654;8.932;2022-09-09T01:24:14;0.97;;;0.50;;
7173;SDS011;3628;48.654;8.932;2022-09-09T01:27:00;1.33;;;0.50;;
7173;SDS011;3628;48.654;8.932;2022-09-09T01:29:27;0.87;;;0.60;;
7173;SDS011;3628;48.654;8.932;2022-09-09T01:31:57;1.70;;;0.53;;
7173;SDS011;3628;48.654;8.932;2022-09-09T01:34:25;1.70;;;0.60;;
7173;SDS011;3628;48.654;8.932;2022-09-09T01:37:02;2.83;;;0.70;;
7173;SDS011;3628;48.654;8.932;2022-09-09T01:39:32;2.43;;;1.03;;
7173;SDS011;3628;48.654;8.932;2022-09-09T01:41:59;2.70;;;1.03;;
7173;SDS011;3628;48.654;8.932;2022-09-09T01:44:26;1.77;;;0.70;;
7173;SDS011;3628;48.654;8.932;2022-09-09T01:46:54;0.73;;;0.70;;
7173;SDS011;3628;48.654;8.932;2022-09-09T01:49:20;1.30;;;0.80;;
7173;SDS011;3628;48.654;8.932;2022-09-09T01:51:48;3.97;;;0.60;;
7173;SDS011;3628;48.654;8.932;2022-09-09T01:54:16;1.60;;;0.70;;
7173;SDS011;3628;48.654;8.932;2022-09-09T02:05:41;3.20;;;0.70;;
7173;SDS011;3628;48.654;8.932;2022-09-09T02:10:44;2.40;;;0.70;;
7173;SDS011;3628;48.654;8.932;2022-09-09T02:13:29;1.63;;;0.60;;
7173;SDS011;3628;48.654;8.932;2022-09-09T02:16:05;2.47;;;0.70;;
7173;SDS011;3628;48.654;8.932;2022-09-09T02:21:09;2.40;;;0.60;;
7173;SDS011;3628;48.654;8.932;2022-09-09T02:23:36;1.50;;;0.70;;
7173;SDS011;3628;48.654;8.932;2022-09-09T02:26:04;5.30;;;0.73;;
7173;SDS011;3628;48.654;8.932;2022-09-09T02:28:32;1.33;;;0.60;;
7173;SDS011;3628;48.654;8.932;2022-09-09T02:31:01;0.80;;;0.60;;
7173;SDS011;3628;48.654;8.932;2022-09-09T02:33:28;1.90;;;0.80;;
7173;SDS011;3628;48.654;8.932;2022-09-09T02:35:59;2.50;;;0.90;;
7173;SDS011;3628;48.654;8.932;2022-09-09T02:38:28;2.20;;;0.70;;
7173;SDS011;3628;48.654;8.932;2022-09-09T02:40:58;2.27;;;0.70;;
7173;SDS011;3628;48.654;8.932;2022-09-09T02:43:24;1.20;;;0.50;;
7173;SDS011;3628;48.654;8.932;2022-09-09T02:45:52;2.27;;;0.60;;
7173;SDS011;3628;48.654;8.932;2022-09-09T02:48:51;1.17;;;0.53;;
7173;SDS011;3628;48.654;8.932;2022-09-09T02:56:46;1.57;;;1.03;;
7173;SDS011;3628;48.654;8.932;2022-09-09T02:59:19;1.80;;;0.70;;
7173;SDS011;3628;48.654;8.932;2022-09-09T03:01:46;0.67;;;0.60;;
7173;SDS011;3628;48.654;8.932;2022-09-09T03:04:12;2.30;;;0.60;;
7173;SDS011;3628;48.654;8.932;2022-09-09T03:06:38;2.50;;;0.73;;
7173;SDS011;3628;48.654;8.932;2022-09-09T03:09:04;2.13;;;0.67;;
7173;SDS011;3628;48.654;8.932;2022-09-09T03:11:30;1.93;;;0.37;;
7173;SDS011;3628;48.654;8.932;2022-09-09T03:13:55;3.47;;;0.70;;
7173;SDS011;3628;48.654;8.932;2022-09-09T03:16:24;2.10;;;0.97;;
7173;SDS011;3628;48.654;8.932;2022-09-09T03:18:49;0.97;;;0.63;;
7173;SDS011;3628;48.654;8.932;2022-09-09T03:21:15;2.60;;;0.80;;
7173;SDS011;3628;48.654;8.932;2022-09-09T03:23:41;2.60;;;0.77;;
7173;SDS011;3628;48.654;8.932;2022-09-09T03:26:07;3.80;;;0.70;;
7173;SDS011;3628;48.654;8.932;2022-09-09T03:28:32;2.47;;;0.63;;
7173;SDS011;3628;48.654;8.932;2022-09-09T03:30:59;4.20;;;0.63;;
7173;SDS011;3628;48.654;8.932;2022-09-09T03:33:29;0.70;;;0.60;;
7173;SDS011;3628;48.654;8.932;2022-09-09T03:35:56;2.07;;;0.70;;
7173;SDS011;3628;48.654;8.932;2022-09-09T03:38:24;4.83;;;0.77;;
7173;SDS011;3628;48.654;8.932;2022-09-09T03:40:51;1.80;;;0.50;;
7173;SDS011;3628;48.654;8.932;2022-09-09T03:43:22;0.97;;;0.60;;
7173;SDS011;3628;48.654;8.932;2022-09-09T03:45:48;1.80;;;0.83;;
7173;SDS011;3628;48.654;8.932;2022-09-09T03:48:14;2.17;;;0.90;;
7173;SDS011;3628;48.654;8.932;2022-09-09T03:50:48;0.97;;;0.40;;
7173;SDS011;3628;48.654;8.932;2022-09-09T03:53:15;3.53;;;0.90;;
7173;SDS011;3628;48.654;8.932;2022-09-09T03:55:45;1.20;;;0.60;;
7173;SDS011;3628;48.654;8.932;2022-09-09T03:58:15;2.83;;;0.80;;
7173;SDS011;3628;48.654;8.932;2022-09-09T04:00:43;1.37;;;0.60;;
7173;SDS011;3628;48.654;8.932;2022-09-09T04:03:22;1.53;;;0.80;;
7173;SDS011;3628;48.654;8.932;2022-09-09T04:05:49;2.17;;;0.67;;
7173;SDS011;3628;48.654;8.932;2022-09-09T04:08:19;2.97;;;0.60;;
7173;SDS011;3628;48.654;8.932;2022-09-09T04:10:46;0.57;;;0.50;;
7173;SDS011;3628;48.654;8.932;2022-09-09T04:13:13;2.07;;;0.77;;
7173;SDS011;3628;48.654;8.932;2022-09-09T04:15:41;0.87;;;0.57;;
7173;SDS011;3628;48.654;8.932;2022-09-09T04:18:07;3.03;;;1.00;;
7173;SDS011;3628;48.654;8.932;2022-09-09T04:20:33;0.67;;;0.53;;
7173;SDS011;3628;48.654;8.932;2022-09-09T04:22:59;1.10;;;0.40;;
7173;SDS011;3628;48.654;8.932;2022-09-09T04:25:25;3.40;;;0.70;;
7173;SDS011;3628;48.654;8.932;2022-09-09T04:27:54;0.77;;;0.60;;
7173;SDS011;3628;48.654;8.932;2022-09-09T04:30:20;3.23;;;0.80;;
7173;SDS011;3628;48.654;8.932;2022-09-09T04:32:46;4.93;;;0.80;;
7173;SDS011;3628;48.654;8.932;2022-09-09T04:35:11;2.20;;;0.83;;
7173;SDS011;3628;48.654;8.932;2022-09-09T04:37:37;3.63;;;0.80;;
7173;SDS011;3628;48.654;8.932;2022-09-09T04:40:03;1.27;;;0.60;;
7173;SDS011;3628;48.654;8.932;2022-09-09T04:42:29;2.90;;;0.77;;
7173;SDS011;3628;48.654;8.932;2022-09-09T04:44:55;4.67;;;0.80;;
7173;SDS011;3628;48.654;8.932;2022-09-09T04:47:20;2.13;;;0.77;;
7173;SDS011;3628;48.654;8.932;2022-09-09T04:49:46;2.30;;;0.80;;
7173;SDS011;3628;48.654;8.932;2022-09-09T04:52:12;0.87;;;0.60;;
7173;SDS011;3628;48.654;8.932;2022-09-09T04:54:38;2.73;;;0.60;;
7173;SDS011;3628;48.654;8.932;2022-09-09T04:57:03;4.53;;;0.80;;
7173;SDS011;3628;48.654;8.932;2022-09-09T04:59:30;2.93;;;0.83;;
7173;SDS011;3628;48.654;8.932;2022-09-09T05:01:55;3.30;;;1.00;;
7173;SDS011;3628;48.654;8.932;2022-09-09T05:04:21;2.00;;;0.70;;
7173;SDS011;3628;48.654;8.932;2022-09-09T05:06:47;1.43;;;0.60;;
7173;SDS011;3628;48.654;8.932;2022-09-09T05:09:13;1.43;;;0.50;;
7173;SDS011;3628;48.654;8.932;2022-09-09T05:11:38;4.53;;;0.90;;
7173;SDS011;3628;48.654;8.932;2022-09-09T05:14:04;1.90;;;0.60;;
7173;SDS011;3628;48.654;8.932;2022-09-09T05:16:30;2.50;;;1.27;;
7173;SDS011;3628;48.654;8.932;2022-09-09T05:18:56;1.80;;;0.80;;
7173;SDS011;3628;48.654;8.932;2022-09-09T05:21:22;4.53;;;0.70;;
7173;SDS011;3628;48.654;8.932;2022-09-09T05:23:51;3.70;;;0.80;;
7173;SDS011;3628;48.654;8.932;2022-09-09T05:26:18;1.97;;;0.80;;
7173;SDS011;3628;48.654;8.932;2022-09-09T05:28:45;1.27;;;0.63;;
7173;SDS011;3628;48.654;8.932;2022-09-09T05:31:12;3.20;;;0.70;;
7173;SDS011;3628;48.654;8.932;2022-09-09T05:33:40;1.83;;;0.63;;
7173;SDS011;3628;48.654;8.932;2022-09-09T05:36:08;1.30;;;0.73;;
7173;SDS011;3628;48.654;8.932;2022-09-09T05:38:38;2.60;;;0.80;;
7173;SDS011;3628;48.654;8.932;2022-09-09T05:41:05;2.37;;;1.00;;
7173;SDS011;3628;48.654;8.932;2022-09-09T05:43:32;1.43;;;0.87;;
7173;SDS011;3628;48.654;8.932;2022-09-09T05:48:31;1.57;;;0.70;;
7173;SDS011;3628;48.654;8.932;2022-09-09T05:50:58;3.77;;;0.97;;
7173;SDS011;3628;48.654;8.932;2022-09-09T05:53:24;2.53;;;0.90;;
7173;SDS011;3628;48.654;8.932;2022-09-09T05:55:57;3.60;;;1.03;;
7173;SDS011;3628;48.654;8.932;2022-09-09T05:58:24;2.30;;;0.80;;
7173;SDS011;3628;48.654;8.932;2022-09-09T06:00:50;2.63;;;0.80;;
7173;SDS011;3628;48.654;8.932;2022-09-09T06:03:15;3.37;;;1.00;;
7173;SDS011;3628;48.654;8.932;2022-09-09T06:05:42;2.43;;;0.60;;
7173;SDS011;3628;48.654;8.932;2022-09-09T06:08:07;1.77;;;0.60;;
7173;SDS011;3628;48.654;8.932;2022-09-09T06:10:33;3.30;;;1.20;;
7173;SDS011;3628;48.654;8.932;2022-09-09T06:12:59;1.40;;;0.70;;
7173;SDS011;3628;48.654;8.932;2022-09-09T06:15:24;1.90;;;0.60;;
7173;SDS011;3628;48.654;8.932;2022-09-09T06:17:54;2.53;;;1.40;;
7173;SDS011;3628;48.654;8.932;2022-09-09T06:20:20;1.67;;;0.40;;
7173;SDS011;3628;48.654;8.932;2022-09-09T06:22:46;2.70;;;0.90;;
7173;SDS011;3628;48.654;8.932;2022-09-09T06:25:13;2.47;;;0.80;;
7173;SDS011;3628;48.654;8.932;2022-09-09T06:27:39;3.23;;;0.90;;
7173;SDS011;3628;48.654;8.932;2022-09-09T06:30:05;2.77;;;0.70;;
7173;SDS011;3628;48.654;8.932;2022-09-09T06:32:32;6.33;;;1.17;;
7173;SDS011;3628;48.654;8.932;2022-09-09T06:34:59;1.90;;;0.90;;
7173;SDS011;3628;48.654;8.932;2022-09-09T06:37:26;2.40;;;0.87;;
7173;SDS011;3628;48.654;8.932;2022-09-09T06:39:52;2.83;;;0.73;;
7173;SDS011;3628;48.654;8.932;2022-09-09T06:42:19;4.97;;;0.73;;
7173;SDS011;3628;48.654;8.932;2022-09-09T06:44:45;3.73;;;0.87;;
7173;SDS011;3628;48.654;8.932;2022-09-09T06:47:11;2.37;;;0.70;;
7173;SDS011;3628;48.654;8.932;2022-09-09T06:49:36;1.10;;;0.60;;
7173;SDS011;3628;48.654;8.932;2022-09-09T06:52:02;1.90;;;0.73;;
7173;SDS011;3628;48.654;8.932;2022-09-09T06:54:27;4.67;;;0.90;;
7173;SDS011;3628;48.654;8.932;2022-09-09T06:56:53;5.47;;;0.90;;
7173;SDS011;3628;48.654;8.932;2022-09-09T06:59:19;1.87;;;0.80;;
7173;SDS011;3628;48.654;8.932;2022-09-09T07:01:44;2.17;;;0.70;;
7173;SDS011;3628;48.654;8.932;2022-09-09T07:04:11;2.60;;;0.70;;
7173;SDS011;3628;48.654;8.932;2022-09-09T07:06:40;3.03;;;0.70;;
7173;SDS011;3628;48.654;8.932;2022-09-09T07:09:12;1.40;;;0.70;;
7173;SDS011;3628;48.654;8.932;2022-09-09T07:11:44;2.27;;;0.70;;
7173;SDS011;3628;48.654;8.932;2022-09-09T07:14:11;3.00;;;0.80;;
7173;SDS011;3628;48.654;8.932;2022-09-09T07:16:39;2.13;;;0.60;;
7173;SDS011;3628;48.654;8.932;2022-09-09T07:19:05;2.83;;;0.90;;
7173;SDS011;3628;48.654;8.932;2022-09-09T07:21:31;1.27;;;0.80;;
7173;SDS011;3628;48.654;8.932;2022-09-09T07:23:58;2.47;;;0.77;;
7173;SDS011;3628;48.654;8.932;2022-09-09T07:26:25;4.33;;;0.83;;
7173;SDS011;3628;48.654;8.932;2022-09-09T07:28:53;1.63;;;0.80;;
7173;SDS011;3628;48.654;8.932;2022-09-09T07:31:22;5.63;;;0.70;;
7173;SDS011;3628;48.654;8.932;2022-09-09T07:33:50;4.27;;;0.80;;
7173;SDS011;3628;48.654;8.932;2022-09-09T07:38:55;3.40;;;0.70;;
7173;SDS011;3628;48.654;8.932;2022-09-09T07:41:24;2.53;;;0.97;;
7173;SDS011;3628;48.654;8.932;2022-09-09T07:44:04;4.37;;;0.80;;
7173;SDS011;3628;48.654;8.932;2022-09-09T07:46:36;3.97;;;0.80;;
7173;SDS011;3628;48.654;8.932;2022-09-09T07:49:04;2.73;;;0.80;;
7173;SDS011;3628;48.654;8.932;2022-09-09T07:51:33;1.50;;;0.60;;
7173;SDS011;3628;48.654;8.932;2022-09-09T07:54:06;4.40;;;0.80;;
7173;SDS011;3628;48.654;8.932;2022-09-09T07:56:34;1.08;;;0.63;;
7173;SDS011;3628;48.654;8.932;2022-09-09T07:59:01;2.15;;;0.60;;
7173;SDS011;3628;48.654;8.932;2022-09-09T08:01:28;1.80;;;0.82;;
7173;SDS011;3628;48.654;8.932;2022-09-09T08:06:30;3.20;;;0.80;;
7173;SDS011;3628;48.654;8.932;2022-09-09T08:08:58;2.45;;;0.77;;
7173;SDS011;3628;48.654;8.932;2022-09-09T08:11:25;2.55;;;0.73;;
7173;SDS011;3628;48.654;8.932;2022-09-09T08:13:52;3.20;;;0.90;;
7173;SDS011;3628;48.654;8.932;2022-09-09T08:16:19;2.72;;;0.65;;
7173;SDS011;3628;48.654;8.932;2022-09-09T08:18:47;1.13;;;0.70;;
7173;SDS011;3628;48.654;8.932;2022-09-09T08:21:15;2.67;;;0.75;;
7173;SDS011;3628;48.654;8.932;2022-09-09T08:23:45;1.85;;;0.60;;
7173;SDS011;3628;48.654;8.932;2022-09-09T08:26:16;1.83;;;0.77;;
7173;SDS011;3628;48.654;8.932;2022-09-09T08:28:47;2.05;;;0.68;;
7173;SDS011;3628;48.654;8.932;2022-09-09T08:31:17;2.05;;;0.52;;
7173;SDS011;3628;48.654;8.932;2022-09-09T08:33:44;3.63;;;0.93;;
7173;SDS011;3628;48.654;8.932;2022-09-09T08:36:11;4.43;;;0.70;;
7173;SDS011;3628;48.654;8.932;2022-09-09T08:38:42;2.22;;;0.50;;
7173;SDS011;3628;48.654;8.932;2022-09-09T08:41:16;1.38;;;0.70;;
7173;SDS011;3628;48.654;8.932;2022-09-09T08:43:50;3.63;;;0.75;;
7173;SDS011;3628;48.654;8.932;2022-09-09T08:46:32;2.83;;;0.63;;
7173;SDS011;3628;48.654;8.932;2022-09-09T08:51:40;2.75;;;0.80;;
7173;SDS011;3628;48.654;8.932;2022-09-09T08:54:07;3.03;;;0.93;;
7173;SDS011;3628;48.654;8.932;2022-09-09T08:56:35;5.57;;;1.13;;
7173;SDS011;3628;48.654;8.932;2022-09-09T08:59:03;1.27;;;0.50;;
7173;SDS011;3628;48.654;8.932;2022-09-09T09:09:42;2.63;;;0.50;;
7173;SDS011;3628;48.654;8.932;2022-09-09T09:12:31;2.37;;;0.60;;
7173;SDS011;3628;48.654;8.932;2022-09-09T09:15:02;1.80;;;0.43;;
7173;SDS011;3628;48.654;8.932;2022-09-09T09:17:36;1.80;;;0.67;;
7173;SDS011;3628;48.654;8.932;2022-09-09T09:20:05;3.23;;;0.60;;
7173;SDS011;3628;48.654;8.932;2022-09-09T09:22:41;2.67;;;0.60;;
7173;SDS011;3628;48.654;8.932;2022-09-09T09:28:17;1.43;;;0.83;;
7173;SDS011;3628;48.654;8.932;2022-09-09T09:30:52;2.50;;;0.90;;
7173;SDS011;3628;48.654;8.932;2022-09-09T09:36:14;2.40;;;0.73;;
7173;SDS011;3628;48.654;8.932;2022-09-09T09:38:57;1.95;;;0.85;;
7173;SDS011;3628;48.654;8.932;2022-09-09T09:41:32;2.83;;;0.80;;
7173;SDS011;3628;48.654;8.932;2022-09-09T09:44:04;3.60;;;0.70;;
7173;SDS011;3628;48.654;8.932;2022-09-09T09:46:31;1.83;;;0.70;;
7173;SDS011;3628;48.654;8.932;2022-09-09T09:51:27;2.42;;;0.73;;
7173;SDS011;3628;48.654;8.932;2022-09-09T09:54:08;6.47;;;1.15;;
7173;SDS011;3628;48.654;8.932;2022-09-09T09:56:38;1.92;;;0.70;;
7173;SDS011;3628;48.654;8.932;2022-09-09T09:59:05;2.50;;;0.68;;
7173;SDS011;3628;48.654;8.932;2022-09-09T10:01:32;3.13;;;0.80;;
7173;SDS011;3628;48.654;8.932;2022-09-09T10:03:59;1.33;;;0.65;;
7173;SDS011;3628;48.654;8.932;2022-09-09T10:06:33;2.40;;;0.77;;
7173;SDS011;3628;48.654;8.932;2022-09-09T10:09:03;2.88;;;0.70;;
7173;SDS011;3628;48.654;8.932;2022-09-09T10:14:40;1.08;;;0.70;;
7173;SDS011;3628;48.654;8.932;2022-09-09T10:20:22;2.10;;;0.60;;
7173;SDS011;3628;48.654;8.932;2022-09-09T10:37:25;2.90;;;0.77;;
7173;SDS011;3628;48.654;8.932;2022-09-09T10:40:19;0.95;;;0.70;;
7173;SDS011;3628;48.654;8.932;2022-09-09T10:42:55;2.92;;;0.60;;
7173;SDS011;3628;48.654;8.932;2022-09-09T10:46:02;3.13;;;0.75;;
7173;SDS011;3628;48.654;8.932;2022-09-09T10:56:48;3.65;;;0.70;;
7173;SDS011;3628;48.654;8.932;2022-09-09T10:59:20;1.98;;;0.45;;
7173;SDS011;3628;48.654;8.932;2022-09-09T11:01:57;2.35;;;0.52;;
7173;SDS011;3628;48.654;8.932;2022-09-09T11:04:53;3.15;;;0.57;;
7173;SDS011;3628;48.654;8.932;2022-09-09T11:07:29;1.40;;;0.60;;
7173;SDS011;3628;48.654;8.932;2022-09-09T11:10:04;1.55;;;0.35;;
7173;SDS011;3628;48.654;8.932;2022-09-09T11:12:37;2.00;;;0.80;;
7173;SDS011;3628;48.654;8.932;2022-09-09T11:15:12;0.50;;;0.40;;
7173;SDS011;3628;48.654;8.932;2022-09-09T11:17:45;0.67;;;0.40;;
7173;SDS011;3628;48.654;8.932;2022-09-09T11:20:14;1.40;;;0.20;;
7173;SDS011;3628;48.654;8.932;2022-09-09T11:22:45;0.37;;;0.20;;
7173;SDS011;3628;48.654;8.932;2022-09-09T11:25:19;2.63;;;0.40;;
7173;SDS011;3628;48.654;8.932;2022-09-09T11:30:32;0.33;;;0.30;;
7173;SDS011;3628;48.654;8.932;2022-09-09T11:35:59;0.57;;;0.10;;
7173;SDS011;3628;48.654;8.932;2022-09-09T11:38:48;1.07;;;0.10;;
7173;SDS011;3628;48.654;8.932;2022-09-09T11:41:16;0.00;;;0.00;;
7173;SDS011;3628;48.654;8.932;2022-09-09T11:43:46;0.70;;;0.20;;
7173;SDS011;3628;48.654;8.932;2022-09-09T11:46:14;0.47;;;0.00;;
7173;SDS011;3628;48.654;8.932;2022-09-09T11:48:45;0.20;;;0.10;;
7173;SDS011;3628;48.654;8.932;2022-09-09T11:51:27;0.67;;;0.20;;
7173;SDS011;3628;48.654;8.932;2022-09-09T11:53:56;1.00;;;0.20;;
7173;SDS011;3628;48.654;8.932;2022-09-09T11:56:48;0.47;;;0.20;;
7173;SDS011;3628;48.654;8.932;2022-09-09T11:59:19;0.80;;;0.30;;
7173;SDS011;3628;48.654;8.932;2022-09-09T12:01:54;0.37;;;0.10;;
7173;SDS011;3628;48.654;8.932;2022-09-09T12:04:37;0.47;;;0.20;;
7173;SDS011;3628;48.654;8.932;2022-09-09T12:12:45;0.80;;;0.57;;
7173;SDS011;3628;48.654;8.932;2022-09-09T12:17:58;1.77;;;0.22;;
7173;SDS011;3628;48.654;8.932;2022-09-09T12:33:33;0.98;;;0.30;;
7173;SDS011;3628;48.654;8.932;2022-09-09T12:36:00;1.17;;;0.50;;
7173;SDS011;3628;48.654;8.932;2022-09-09T12:38:36;1.33;;;0.30;;
7173;SDS011;3628;48.654;8.932;2022-09-09T12:41:05;1.52;;;0.32;;
7173;SDS011;3628;48.654;8.932;2022-09-09T12:43:31;1.63;;;0.50;;
7173;SDS011;3628;48.654;8.932;2022-09-09T12:46:03;1.92;;;0.32;;
7173;SDS011;3628;48.654;8.932;2022-09-09T12:48:44;1.33;;;0.55;;
7173;SDS011;3628;48.654;8.932;2022-09-09T12:53:56;0.85;;;0.20;;
7173;SDS011;3628;48.654;8.932;2022-09-09T12:56:27;0.93;;;0.40;;
7173;SDS011;3628;48.654;8.932;2022-09-09T12:58:56;0.40;;;0.20;;
7173;SDS011;3628;48.654;8.932;2022-09-09T13:01:30;1.08;;;0.38;;
7173;SDS011;3628;48.654;8.932;2022-09-09T13:04:00;1.02;;;0.50;;
7173;SDS011;3628;48.654;8.932;2022-09-09T13:06:27;1.10;;;0.30;;
7173;SDS011;3628;48.654;8.932;2022-09-09T13:08:56;0.80;;;0.45;;
7173;SDS011;3628;48.654;8.932;2022-09-09T13:11:37;1.77;;;0.20;;
7173;SDS011;3628;48.654;8.932;2022-09-09T13:14:12;1.02;;;0.30;;
7173;SDS011;3628;48.654;8.932;2022-09-09T13:16:54;1.02;;;0.40;;
7173;SDS011;3628;48.654;8.932;2022-09-09T13:19:21;1.45;;;0.55;;
7173;SDS011;3628;48.654;8.932;2022-09-09T13:21:47;1.10;;;0.32;;
7173;SDS011;3628;48.654;8.932;2022-09-09T13:26:56;0.50;;;0.20;;
7173;SDS011;3628;48.654;8.932;2022-09-09T13:29:21;2.63;;;0.52;;
7173;SDS011;3628;48.654;8.932;2022-09-09T13:31:48;1.63;;;0.40;;
7173;SDS011;3628;48.654;8.932;2022-09-09T13:34:30;1.02;;;0.35;;
7173;SDS011;3628;48.654;8.932;2022-09-09T13:37:07;1.33;;;0.50;;
7173;SDS011;3628;48.654;8.932;2022-09-09T13:39:50;1.20;;;0.45;;
7173;SDS011;3628;48.654;8.932;2022-09-09T13:42:28;1.13;;;0.40;;
7173;SDS011;3628;48.654;8.932;2022-09-09T13:44:55;2.15;;;0.43;;
7173;SDS011;3628;48.654;8.932;2022-09-09T13:47:27;3.35;;;0.45;;
7173;SDS011;3628;48.654;8.932;2022-09-09T13:49:56;3.72;;;0.50;;
7173;SDS011;3628;48.654;8.932;2022-09-09T13:52:22;0.80;;;0.38;;
7173;SDS011;3628;48.654;8.932;2022-09-09T13:54:48;0.45;;;0.20;;
7173;SDS011;3628;48.654;8.932;2022-09-09T13:57:16;0.57;;;0.20;;
7173;SDS011;3628;48.654;8.932;2022-09-09T13:59:50;0.55;;;0.30;;
7173;SDS011;3628;48.654;8.932;2022-09-09T14:02:17;0.70;;;0.40;;
7173;SDS011;3628;48.654;8.932;2022-09-09T14:04:43;4.72;;;0.43;;
7173;SDS011;3628;48.654;8.932;2022-09-09T14:07:13;0.68;;;0.30;;
7173;SDS011;3628;48.654;8.932;2022-09-09T14:09:40;1.00;;;0.25;;
7173;SDS011;3628;48.654;8.932;2022-09-09T14:12:13;0.22;;;0.22;;
7173;SDS011;3628;48.654;8.932;2022-09-09T14:14:40;1.50;;;0.20;;
7173;SDS011;3628;48.654;8.932;2022-09-09T14:17:07;1.08;;;0.17;;
7173;SDS011;3628;48.654;8.932;2022-09-09T14:19:33;0.30;;;0.20;;
7173;SDS011;3628;48.654;8.932;2022-09-09T14:21:59;2.22;;;0.40;;
7173;SDS011;3628;48.654;8.932;2022-09-09T14:24:26;1.85;;;0.63;;
7173;SDS011;3628;48.654;8.932;2022-09-09T14:26:52;1.08;;;0.40;;
7173;SDS011;3628;48.654;8.932;2022-09-09T14:29:19;0.55;;;0.20;;
7173;SDS011;3628;48.654;8.932;2022-09-09T14:31:44;2.40;;;0.30;;
7173;SDS011;3628;48.654;8.932;2022-09-09T14:34:10;3.90;;;0.55;;
7173;SDS011;3628;48.654;8.932;2022-09-09T14:36:36;0.85;;;0.40;;
7173;SDS011;3628;48.654;8.932;2022-09-09T14:39:02;2.13;;;0.60;;
7173;SDS011;3628;48.654;8.932;2022-09-09T14:41:29;0.77;;;0.30;;
7173;SDS011;3628;48.654;8.932;2022-09-09T14:43:55;1.13;;;0.30;;
7173;SDS011;3628;48.654;8.932;2022-09-09T14:46:21;1.65;;;0.40;;
7173;SDS011;3628;48.654;8.932;2022-09-09T14:48:47;1.95;;;0.63;;
7173;SDS011;3628;48.654;8.932;2022-09-09T14:51:17;1.95;;;0.40;;
7173;SDS011;3628;48.654;8.932;2022-09-09T14:53:44;1.17;;;0.47;;
7173;SDS011;3628;48.654;8.932;2022-09-09T14:56:12;2.25;;;0.60;;
7173;SDS011;3628;48.654;8.932;2022-09-09T14:58:40;1.40;;;0.50;;
7173;SDS011;3628;48.654;8.932;2022-09-09T15:01:06;2.10;;;0.68;;
7173;SDS011;3628;48.654;8.932;2022-09-09T15:03:35;1.88;;;0.50;;
7173;SDS011;3628;48.654;8.932;2022-09-09T15:06:05;2.17;;;0.30;;
7173;SDS011;3628;48.654;8.932;2022-09-09T15:08:38;0.82;;;0.40;;
7173;SDS011;3628;48.654;8.932;2022-09-09T15:11:06;1.98;;;0.40;;
7173;SDS011;3628;48.654;8.932;2022-09-09T15:13:32;1.48;;;0.40;;
7173;SDS011;3628;48.654;8.932;2022-09-09T15:18:32;0.88;;;0.40;;
7173;SDS011;3628;48.654;8.932;2022-09-09T15:20:58;0.57;;;0.20;;
7173;SDS011;3628;48.654;8.932;2022-09-09T15:23:25;0.95;;;0.47;;
7173;SDS011;3628;48.654;8.932;2022-09-09T15:25:51;1.23;;;0.45;;
7173;SDS011;3628;48.654;8.932;2022-09-09T15:28:21;0.77;;;0.15;;
7173;SDS011;3628;48.654;8.932;2022-09-09T15:30:48;1.60;;;0.80;;
7173;SDS011;3628;48.654;8.932;2022-09-09T15:33:14;2.10;;;0.70;;
7173;SDS011;3628;48.654;8.932;2022-09-09T15:35:40;1.77;;;0.45;;
7173;SDS011;3628;48.654;8.932;2022-09-09T15:38:05;2.08;;;0.35;;
7173;SDS011;3628;48.654;8.932;2022-09-09T15:40:31;1.25;;;0.50;;
7173;SDS011;3628;48.654;8.932;2022-09-09T15:43:00;1.67;;;0.32;;
7173;SDS011;3628;48.654;8.932;2022-09-09T15:45:25;2.03;;;0.50;;
7173;SDS011;3628;48.654;8.932;2022-09-09T15:47:51;1.65;;;0.40;;
7173;SDS011;3628;48.654;8.932;2022-09-09T15:50:17;1.67;;;0.20;;
7173;SDS011;3628;48.654;8.932;2022-09-09T15:52:43;0.98;;;0.30;;
7173;SDS011;3628;48.654;8.932;2022-09-09T15:55:09;1.15;;;0.30;;
7173;SDS011;3628;48.654;8.932;2022-09-09T15:57:35;0.52;;;0.28;;
7173;SDS011;3628;48.654;8.932;2022-09-09T16:00:01;3.13;;;0.30;;
7173;SDS011;3628;48.654;8.932;2022-09-09T16:02:29;2.20;;;0.50;;
7173;SDS011;3628;48.654;8.932;2022-09-09T16:04:55;1.00;;;0.30;;
7173;SDS011;3628;48.654;8.932;2022-09-09T16:07:22;2.15;;;0.43;;
7173;SDS011;3628;48.654;8.932;2022-09-09T16:09:48;0.70;;;0.30;;
7173;SDS011;3628;48.654;8.932;2022-09-09T16:12:15;0.77;;;0.28;;
7173;SDS011;3628;48.654;8.932;2022-09-09T16:14:41;0.85;;;0.30;;
7173;SDS011;3628;48.654;8.932;2022-09-09T16:17:06;2.33;;;0.40;;
7173;SDS011;3628;48.654;8.932;2022-09-09T16:19:32;0.38;;;0.08;;
7173;SDS011;3628;48.654;8.932;2022-09-09T16:21:59;0.38;;;0.10;;
7173;SDS011;3628;48.654;8.932;2022-09-09T16:24:25;1.33;;;0.30;;
7173;SDS011;3628;48.654;8.932;2022-09-09T16:26:52;2.75;;;0.30;;
7173;SDS011;3628;48.654;8.932;2022-09-09T16:29:19;0.20;;;0.10;;
7173;SDS011;3628;48.654;8.932;2022-09-09T16:31:46;0.70;;;0.10;;
7173;SDS011;3628;48.654;8.932;2022-09-09T16:34:13;0.47;;;0.20;;
7173;SDS011;3628;48.654;8.932;2022-09-09T16:36:40;0.10;;;0.10;;
7173;SDS011;3628;48.654;8.932;2022-09-09T16:39:08;0.10;;;0.10;;
7173;SDS011;3628;48.654;8.932;2022-09-09T16:41:39;0.10;;;0.00;;
7173;SDS011;3628;48.654;8.932;2022-09-09T16:44:07;1.55;;;0.20;;
7173;SDS011;3628;48.654;8.932;2022-09-09T16:46:35;2.00;;;0.10;;
7173;SDS011;3628;48.654;8.932;2022-09-09T16:49:04;0.25;;;0.17;;
7173;SDS011;3628;48.654;8.932;2022-09-09T16:51:32;0.30;;;0.20;;
7173;SDS011;3628;48.654;8.932;2022-09-09T16:54:00;0.65;;;0.20;;
7173;SDS011;3628;48.654;8.932;2022-09-09T16:56:28;1.23;;;0.20;;
7173;SDS011;3628;48.654;8.932;2022-09-09T16:58:56;1.55;;;0.20;;
7173;SDS011;3628;48.654;8.932;2022-09-09T17:01:24;0.32;;;0.20;;
7173;SDS011;3628;48.654;8.932;2022-09-09T17:03:54;0.20;;;0.20;;
7173;SDS011;3628;48.654;8.932;2022-09-09T17:06:20;0.00;;;0.00;;
7173;SDS011;3628;48.654;8.932;2022-09-09T17:08:46;0.63;;;0.20;;
7173;SDS011;3628;48.654;8.932;2022-09-09T17:11:17;0.47;;;0.10;;
7173;SDS011;3628;48.654;8.932;2022-09-09T17:13:46;0.50;;;0.10;;
7173;SDS011;3628;48.654;8.932;2022-09-09T17:16:13;0.33;;;0.20;;
7173;SDS011;3628;48.654;8.932;2022-09-09T17:18:40;0.37;;;0.17;;
7173;SDS011;3628;48.654;8.932;2022-09-09T17:21:07;0.10;;;0.10;;
7173;SDS011;3628;48.654;8.932;2022-09-09T17:23:35;0.63;;;0.20;;
7173;SDS011;3628;48.654;8.932;2022-09-09T17:26:08;0.73;;;0.20;;
7173;SDS011;3628;48.654;8.932;2022-09-09T17:28:36;0.70;;;0.10;;
7173;SDS011;3628;48.654;8.932;2022-09-09T17:31:03;1.50;;;0.30;;
7173;SDS011;3628;48.654;8.932;2022-09-09T17:33:35;0.77;;;0.23;;
7173;SDS011;3628;48.654;8.932;2022-09-09T17:36:08;0.83;;;0.30;;
7173;SDS011;3628;48.654;8.932;2022-09-09T17:38:36;1.60;;;0.20;;
7173;SDS011;3628;48.654;8.932;2022-09-09T17:43:32;0.20;;;0.20;;
7173;SDS011;3628;48.654;8.932;2022-09-09T17:46:05;1.57;;;0.30;;
7173;SDS011;3628;48.654;8.932;2022-09-09T17:48:36;1.87;;;0.20;;
7173;SDS011;3628;48.654;8.932;2022-09-09T17:51:03;1.07;;;0.30;;
7173;SDS011;3628;48.654;8.932;2022-09-09T17:53:30;0.97;;;0.30;;
7173;SDS011;3628;48.654;8.932;2022-09-09T17:56:04;1.80;;;0.20;;